sensor_id;sensor_type;location;lat;lon;timestamp;pressure;altitude;pressure_sealevel;temperature;humidity
75013;BME280;63567;49.956;20.130;2024-01-25T00:01:26;96712.72;;;6.85;83.46
75013;BME280;63567;49.956;20.130;2024-01-25T00:03:51;96721.59;;;6.84;83.45
75013;BME280;63567;49.956;20.130;2024-01-25T00:06:16;96732.22;;;6.83;83.44
75013;BME280;63567;49.956;20.130;2024-01-25T00:08:41;96728.00;;;6.82;83.69
75013;BME280;63567;49.956;20.130;2024-01-25T00:11:07;96747.47;;;6.79;83.49
75013;BME280;63567;49.956;20.130;2024-01-25T00:13:32;96717.03;;;6.78;83.62
75013;BME280;63567;49.956;20.130;2024-01-25T00:15:57;96731.13;;;6.77;83.25
75013;BME280;63567;49.956;20.130;2024-01-25T00:18:23;96721.31;;;6.79;83.06
75013;BME280;63567;49.956;20.130;2024-01-25T00:20:48;96733.53;;;6.78;82.90
75013;BME280;63567;49.956;20.130;2024-01-25T00:23:14;96745.66;;;6.79;82.75
75013;BME280;63567;49.956;20.130;2024-01-25T00:25:39;96743.06;;;6.79;83.32
75013;BME280;63567;49.956;20.130;2024-01-25T00:28:04;96737.66;;;6.81;83.24
75013;BME280;63567;49.956;20.130;2024-01-25T00:30:30;96734.03;;;6.82;83.10
75013;BME280;63567;49.956;20.130;2024-01-25T00:32:58;96736.00;;;6.80;83.59
75013;BME280;63567;49.956;20.130;2024-01-25T00:35:24;96732.41;;;6.81;83.19
75013;BME280;63567;49.956;20.130;2024-01-25T00:37:50;96728.97;;;6.81;83.07
75013;BME280;63567;49.956;20.130;2024-01-25T00:40:15;96728.78;;;6.82;83.19
75013;BME280;63567;49.956;20.130;2024-01-25T00:42:42;96721.09;;;6.81;83.09
75013;BME280;63567;49.956;20.130;2024-01-25T00:45:09;96727.19;;;6.81;83.33
75013;BME280;63567;49.956;20.130;2024-01-25T00:47:34;96718.50;;;6.81;83.19
75013;BME280;63567;49.956;20.130;2024-01-25T00:50:00;96726.34;;;6.81;82.82
75013;BME280;63567;49.956;20.130;2024-01-25T00:52:26;96742.25;;;6.79;82.86
75013;BME280;63567;49.956;20.130;2024-01-25T00:54:51;96715.88;;;6.81;82.37
75013;BME280;63567;49.956;20.130;2024-01-25T00:57:17;96723.06;;;6.78;81.93
75013;BME280;63567;49.956;20.130;2024-01-25T00:59:42;96727.50;;;6.78;82.03
75013;BME280;63567;49.956;20.130;2024-01-25T01:02:11;96735.53;;;6.76;82.05
75013;BME280;63567;49.956;20.130;2024-01-25T01:04:37;96740.44;;;6.79;82.10
75013;BME280;63567;49.956;20.130;2024-01-25T01:07:03;96717.84;;;6.78;82.32
75013;BME280;63567;49.956;20.130;2024-01-25T01:09:29;96729.16;;;6.79;81.85
75013;BME280;63567;49.956;20.130;2024-01-25T01:11:54;96736.00;;;6.80;81.79
75013;BME280;63567;49.956;20.130;2024-01-25T01:14:19;96723.41;;;6.84;81.64
75013;BME280;63567;49.956;20.130;2024-01-25T01:16:44;96723.56;;;6.82;81.98
75013;BME280;63567;49.956;20.130;2024-01-25T01:19:10;96712.28;;;6.82;81.72
75013;BME280;63567;49.956;20.130;2024-01-25T01:21:35;96703.25;;;6.84;81.75
75013;BME280;63567;49.956;20.130;2024-01-25T01:24:01;96703.44;;;6.83;81.76
75013;BME280;63567;49.956;20.130;2024-01-25T01:26:26;96711.75;;;6.86;81.88
75013;BME280;63567;49.956;20.130;2024-01-25T01:28:52;96705.53;;;6.87;81.48
75013;BME280;63567;49.956;20.130;2024-01-25T01:31:17;96722.22;;;6.86;81.43
75013;BME280;63567;49.956;20.130;2024-01-25T01:33:42;96712.94;;;6.84;81.53
75013;BME280;63567;49.956;20.130;2024-01-25T01:36:07;96719.25;;;6.89;81.51
75013;BME280;63567;49.956;20.130;2024-01-25T01:38:33;96701.75;;;6.90;81.23
75013;BME280;63567;49.956;20.130;2024-01-25T01:40:58;96695.53;;;6.91;81.17
75013;BME280;63567;49.956;20.130;2024-01-25T01:43:23;96699.97;;;6.90;80.72
75013;BME280;63567;49.956;20.130;2024-01-25T01:45:49;96698.94;;;6.91;81.06
75013;BME280;63567;49.956;20.130;2024-01-25T01:48:16;96714.66;;;6.91;80.75
75013;BME280;63567;49.956;20.130;2024-01-25T01:50:43;96706.00;;;6.91;80.23
75013;BME280;63567;49.956;20.130;2024-01-25T01:53:09;96695.69;;;6.89;80.17
75013;BME280;63567;49.956;20.130;2024-01-25T01:55:35;96702.75;;;6.89;80.20
75013;BME280;63567;49.956;20.130;2024-01-25T01:58:01;96711.88;;;6.93;80.17
75013;BME280;63567;49.956;20.130;2024-01-25T02:00:29;96708.47;;;6.92;80.30
75013;BME280;63567;49.956;20.130;2024-01-25T02:02:55;96697.78;;;6.94;80.15
75013;BME280;63567;49.956;20.130;2024-01-25T02:05:22;96702.22;;;6.93;80.09
75013;BME280;63567;49.956;20.130;2024-01-25T02:07:48;96707.66;;;6.92;80.44
75013;BME280;63567;49.956;20.130;2024-01-25T02:10:13;96693.38;;;6.94;80.71
75013;BME280;63567;49.956;20.130;2024-01-25T02:12:38;96701.41;;;6.93;80.25
75013;BME280;63567;49.956;20.130;2024-01-25T02:15:04;96680.47;;;6.93;80.47
75013;BME280;63567;49.956;20.130;2024-01-25T02:17:30;96653.63;;;6.91;80.42
75013;BME280;63567;49.956;20.130;2024-01-25T02:19:55;96692.09;;;6.90;80.28
75013;BME280;63567;49.956;20.130;2024-01-25T02:22:20;96673.28;;;6.87;80.19
75013;BME280;63567;49.956;20.130;2024-01-25T02:24:45;96682.16;;;6.86;80.32
75013;BME280;63567;49.956;20.130;2024-01-25T02:27:11;96661.53;;;6.83;79.71
75013;BME280;63567;49.956;20.130;2024-01-25T02:29:36;96660.56;;;6.84;79.39
75013;BME280;63567;49.956;20.130;2024-01-25T02:32:02;96663.19;;;6.84;79.64
75013;BME280;63567;49.956;20.130;2024-01-25T02:34:27;96651.06;;;6.83;79.65
75013;BME280;63567;49.956;20.130;2024-01-25T02:36:52;96671.19;;;6.82;79.66
75013;BME280;63567;49.956;20.130;2024-01-25T02:39:17;96681.03;;;6.80;79.35
75013;BME280;63567;49.956;20.130;2024-01-25T02:41:43;96668.94;;;6.79;79.52
75013;BME280;63567;49.956;20.130;2024-01-25T02:44:08;96658.00;;;6.75;80.45
75013;BME280;63567;49.956;20.130;2024-01-25T02:46:33;96657.19;;;6.75;80.64
75013;BME280;63567;49.956;20.130;2024-01-25T02:48:59;96661.78;;;6.73;80.95
75013;BME280;63567;49.956;20.130;2024-01-25T02:51:24;96673.06;;;6.73;80.37
75013;BME280;63567;49.956;20.130;2024-01-25T02:53:49;96668.81;;;6.72;80.50
75013;BME280;63567;49.956;20.130;2024-01-25T02:56:14;96675.84;;;6.72;80.31
75013;BME280;63567;49.956;20.130;2024-01-25T02:58:40;96673.41;;;6.70;79.99
75013;BME280;63567;49.956;20.130;2024-01-25T03:01:05;96680.94;;;6.65;79.85
75013;BME280;63567;49.956;20.130;2024-01-25T03:03:30;96667.84;;;6.65;79.74
75013;BME280;63567;49.956;20.130;2024-01-25T03:05:55;96675.72;;;6.65;79.71
75013;BME280;63567;49.956;20.130;2024-01-25T03:08:21;96682.59;;;6.66;79.64
75013;BME280;63567;49.956;20.130;2024-01-25T03:10:46;96677.34;;;6.66;79.17
75013;BME280;63567;49.956;20.130;2024-01-25T03:13:14;96690.44;;;6.66;78.82
75013;BME280;63567;49.956;20.130;2024-01-25T03:15:41;96667.06;;;6.65;78.74
75013;BME280;63567;49.956;20.130;2024-01-25T03:18:06;96674.09;;;6.64;78.22
75013;BME280;63567;49.956;20.130;2024-01-25T03:20:31;96676.72;;;6.64;78.83
75013;BME280;63567;49.956;20.130;2024-01-25T03:22:57;96688.63;;;6.67;77.92
75013;BME280;63567;49.956;20.130;2024-01-25T03:25:22;96674.25;;;6.63;78.27
75013;BME280;63567;49.956;20.130;2024-01-25T03:27:47;96685.38;;;6.65;77.98
75013;BME280;63567;49.956;20.130;2024-01-25T03:30:13;96690.44;;;6.66;77.22
75013;BME280;63567;49.956;20.130;2024-01-25T03:32:38;96679.13;;;6.66;77.36
75013;BME280;63567;49.956;20.130;2024-01-25T03:35:03;96690.78;;;6.63;77.18
75013;BME280;63567;49.956;20.130;2024-01-25T03:37:29;96678.34;;;6.65;76.93
75013;BME280;63567;49.956;20.130;2024-01-25T03:39:54;96677.34;;;6.66;76.66
75013;BME280;63567;49.956;20.130;2024-01-25T03:42:19;96683.56;;;6.65;76.62
75013;BME280;63567;49.956;20.130;2024-01-25T03:44:44;96681.94;;;6.64;76.81
75013;BME280;63567;49.956;20.130;2024-01-25T03:47:11;96684.38;;;6.66;77.01
75013;BME280;63567;49.956;20.130;2024-01-25T03:49:36;96689.28;;;6.69;76.53
75013;BME280;63567;49.956;20.130;2024-01-25T03:52:02;96692.88;;;6.68;76.19
75013;BME280;63567;49.956;20.130;2024-01-25T03:54:27;96705.16;;;6.67;76.33
75013;BME280;63567;49.956;20.130;2024-01-25T03:56:53;96702.69;;;6.66;76.25
75013;BME280;63567;49.956;20.130;2024-01-25T03:59:18;96710.50;;;6.74;76.09
75013;BME280;63567;49.956;20.130;2024-01-25T04:01:44;96737.19;;;6.69;77.07
75013;BME280;63567;49.956;20.130;2024-01-25T04:04:10;96733.28;;;6.65;77.70
75013;BME280;63567;49.956;20.130;2024-01-25T04:06:38;96745.94;;;6.62;78.67
75013;BME280;63567;49.956;20.130;2024-01-25T04:09:03;96736.78;;;6.57;79.15
75013;BME280;63567;49.956;20.130;2024-01-25T04:11:29;96730.53;;;6.58;79.73
75013;BME280;63567;49.956;20.130;2024-01-25T04:13:54;96743.97;;;6.55;80.13
75013;BME280;63567;49.956;20.130;2024-01-25T04:16:19;96749.53;;;6.52;80.82
75013;BME280;63567;49.956;20.130;2024-01-25T04:18:44;96731.56;;;6.49;80.21
75013;BME280;63567;49.956;20.130;2024-01-25T04:21:10;96730.44;;;6.44;80.00
75013;BME280;63567;49.956;20.130;2024-01-25T04:23:35;96721.81;;;6.35;80.91
75013;BME280;63567;49.956;20.130;2024-01-25T04:26:00;96722.31;;;6.30;80.58
75013;BME280;63567;49.956;20.130;2024-01-25T04:28:25;96709.75;;;6.26;80.85
75013;BME280;63567;49.956;20.130;2024-01-25T04:30:51;96707.13;;;6.26;80.84
75013;BME280;63567;49.956;20.130;2024-01-25T04:33:16;96721.06;;;6.18;80.78
75013;BME280;63567;49.956;20.130;2024-01-25T04:35:43;96712.59;;;6.08;80.61
75013;BME280;63567;49.956;20.130;2024-01-25T04:38:08;96703.28;;;6.05;80.93
75013;BME280;63567;49.956;20.130;2024-01-25T04:40:33;96698.53;;;6.01;81.07
75013;BME280;63567;49.956;20.130;2024-01-25T04:42:59;96690.06;;;5.99;81.40
75013;BME280;63567;49.956;20.130;2024-01-25T04:45:24;96689.44;;;5.96;81.13
75013;BME280;63567;49.956;20.130;2024-01-25T04:47:49;96695.94;;;5.92;81.11
75013;BME280;63567;49.956;20.130;2024-01-25T04:50:14;96690.72;;;5.92;80.81
75013;BME280;63567;49.956;20.130;2024-01-25T04:52:40;96682.69;;;5.94;80.45
75013;BME280;63567;49.956;20.130;2024-01-25T04:55:05;96708.81;;;5.94;79.84
75013;BME280;63567;49.956;20.130;2024-01-25T04:57:30;96693.63;;;5.89;80.25
75013;BME280;63567;49.956;20.130;2024-01-25T04:59:56;96688.91;;;5.93;80.11
75013;BME280;63567;49.956;20.130;2024-01-25T05:02:21;96688.91;;;5.93;79.79
75013;BME280;63567;49.956;20.130;2024-01-25T05:04:46;96669.78;;;5.92;79.92
75013;BME280;63567;49.956;20.130;2024-01-25T05:07:11;96687.91;;;5.94;79.37
75013;BME280;63567;49.956;20.130;2024-01-25T05:09:37;96686.16;;;5.94;79.58
75013;BME280;63567;49.956;20.130;2024-01-25T05:12:02;96695.47;;;5.97;79.48
75013;BME280;63567;49.956;20.130;2024-01-25T05:14:27;96704.13;;;5.97;79.75
75013;BME280;63567;49.956;20.130;2024-01-25T05:16:53;96696.91;;;6.00;79.83
75013;BME280;63567;49.956;20.130;2024-01-25T05:19:18;96703.94;;;5.99;79.64
75013;BME280;63567;49.956;20.130;2024-01-25T05:21:43;96706.72;;;6.06;78.92
75013;BME280;63567;49.956;20.130;2024-01-25T05:24:08;96699.19;;;6.03;79.27
75013;BME280;63567;49.956;20.130;2024-01-25T05:26:35;96695.44;;;6.05;79.49
75013;BME280;63567;49.956;20.130;2024-01-25T05:29:00;96731.88;;;6.07;79.44
75013;BME280;63567;49.956;20.130;2024-01-25T05:31:25;96717.63;;;6.09;79.50
75013;BME280;63567;49.956;20.130;2024-01-25T05:33:51;96712.09;;;6.12;79.39
75013;BME280;63567;49.956;20.130;2024-01-25T05:36:16;96706.50;;;6.15;79.29
75013;BME280;63567;49.956;20.130;2024-01-25T05:38:41;96722.38;;;6.14;79.43
75013;BME280;63567;49.956;20.130;2024-01-25T05:41:06;96709.31;;;6.14;79.49
75013;BME280;63567;49.956;20.130;2024-01-25T05:43:33;96727.78;;;6.12;79.56
75013;BME280;63567;49.956;20.130;2024-01-25T05:45:58;96735.47;;;6.14;79.56
75013;BME280;63567;49.956;20.130;2024-01-25T05:48:23;96737.06;;;6.15;79.70
75013;BME280;63567;49.956;20.130;2024-01-25T05:50:49;96730.03;;;6.15;79.88
75013;BME280;63567;49.956;20.130;2024-01-25T05:53:14;96734.31;;;6.16;80.24
75013;BME280;63567;49.956;20.130;2024-01-25T05:55:41;96738.38;;;6.19;80.12
75013;BME280;63567;49.956;20.130;2024-01-25T05:58:06;96726.91;;;6.20;80.13
75013;BME280;63567;49.956;20.130;2024-01-25T06:00:32;96726.75;;;6.22;79.76
75013;BME280;63567;49.956;20.130;2024-01-25T06:02:57;96711.56;;;6.17;79.84
75013;BME280;63567;49.956;20.130;2024-01-25T06:05:25;96717.81;;;6.16;79.88
75013;BME280;63567;49.956;20.130;2024-01-25T06:07:50;96729.88;;;6.17;79.34
75013;BME280;63567;49.956;20.130;2024-01-25T06:10:15;96722.03;;;6.17;79.42
75013;BME280;63567;49.956;20.130;2024-01-25T06:12:40;96713.22;;;6.18;79.40
75013;BME280;63567;49.956;20.130;2024-01-25T06:15:06;96718.44;;;6.18;79.23
75013;BME280;63567;49.956;20.130;2024-01-25T06:17:32;96729.06;;;6.16;79.50
75013;BME280;63567;49.956;20.130;2024-01-25T06:19:57;96729.88;;;6.17;79.46
75013;BME280;63567;49.956;20.130;2024-01-25T06:22:22;96719.41;;;6.17;80.09
75013;BME280;63567;49.956;20.130;2024-01-25T06:24:48;96717.63;;;6.17;80.94
75013;BME280;63567;49.956;20.130;2024-01-25T06:27:13;96710.28;;;6.13;81.00
75013;BME280;63567;49.956;20.130;2024-01-25T06:29:38;96701.78;;;6.11;81.19
75013;BME280;63567;49.956;20.130;2024-01-25T06:32:04;96719.94;;;6.12;81.31
75013;BME280;63567;49.956;20.130;2024-01-25T06:34:29;96741.66;;;6.13;81.29
75013;BME280;63567;49.956;20.130;2024-01-25T06:36:54;96734.81;;;6.12;81.40
75013;BME280;63567;49.956;20.130;2024-01-25T06:39:20;96747.88;;;6.12;81.65
75013;BME280;63567;49.956;20.130;2024-01-25T06:41:45;96738.75;;;6.08;81.78
75013;BME280;63567;49.956;20.130;2024-01-25T06:44:10;96712.75;;;6.06;82.15
75013;BME280;63567;49.956;20.130;2024-01-25T06:46:36;96733.50;;;6.08;82.20
75013;BME280;63567;49.956;20.130;2024-01-25T06:49:01;96737.94;;;6.07;82.33
75013;BME280;63567;49.956;20.130;2024-01-25T06:51:26;96721.91;;;6.02;82.65
75013;BME280;63567;49.956;20.130;2024-01-25T06:53:51;96735.97;;;6.01;82.89
75013;BME280;63567;49.956;20.130;2024-01-25T06:56:17;96732.38;;;6.02;83.23
75013;BME280;63567;49.956;20.130;2024-01-25T06:58:42;96741.53;;;5.98;83.50
75013;BME280;63567;49.956;20.130;2024-01-25T07:01:07;96751.16;;;5.97;83.77
75013;BME280;63567;49.956;20.130;2024-01-25T07:03:33;96747.91;;;5.95;84.23
75013;BME280;63567;49.956;20.130;2024-01-25T07:05:58;96742.53;;;5.97;84.33
75013;BME280;63567;49.956;20.130;2024-01-25T07:08:23;96743.31;;;5.89;84.95
75013;BME280;63567;49.956;20.130;2024-01-25T07:10:49;96746.25;;;5.86;85.33
75013;BME280;63567;49.956;20.130;2024-01-25T07:13:14;96746.91;;;5.88;85.15
75013;BME280;63567;49.956;20.130;2024-01-25T07:15:39;96735.97;;;5.85;85.78
75013;BME280;63567;49.956;20.130;2024-01-25T07:18:05;96746.75;;;5.82;85.37
75013;BME280;63567;49.956;20.130;2024-01-25T07:20:30;96738.28;;;5.80;86.13
75013;BME280;63567;49.956;20.130;2024-01-25T07:22:56;96747.06;;;5.79;85.94
75013;BME280;63567;49.956;20.130;2024-01-25T07:25:21;96728.97;;;5.77;86.17
75013;BME280;63567;49.956;20.130;2024-01-25T07:27:47;96725.50;;;5.76;86.35
75013;BME280;63567;49.956;20.130;2024-01-25T07:30:14;96731.75;;;5.75;86.41
75013;BME280;63567;49.956;20.130;2024-01-25T07:32:40;96736.16;;;5.75;86.69
75013;BME280;63567;49.956;20.130;2024-01-25T07:35:07;96729.28;;;5.74;86.37
75013;BME280;63567;49.956;20.130;2024-01-25T07:37:33;96731.88;;;5.74;86.38
75013;BME280;63567;49.956;20.130;2024-01-25T07:39:58;96725.19;;;5.71;86.63
75013;BME280;63567;49.956;20.130;2024-01-25T07:42:23;96724.41;;;5.71;86.58
75013;BME280;63567;49.956;20.130;2024-01-25T07:44:48;96746.91;;;5.72;86.73
75013;BME280;63567;49.956;20.130;2024-01-25T07:47:14;96726.00;;;5.72;86.78
75013;BME280;63567;49.956;20.130;2024-01-25T07:49:40;96731.44;;;5.70;86.77
75013;BME280;63567;49.956;20.130;2024-01-25T07:52:05;96739.25;;;5.70;86.62
75013;BME280;63567;49.956;20.130;2024-01-25T07:54:30;96752.16;;;5.72;86.63
75013;BME280;63567;49.956;20.130;2024-01-25T07:56:56;96744.31;;;5.72;86.72
75013;BME280;63567;49.956;20.130;2024-01-25T07:59:21;96752.34;;;5.70;86.66
75013;BME280;63567;49.956;20.130;2024-01-25T08:01:46;96747.41;;;5.67;87.03
75013;BME280;63567;49.956;20.130;2024-01-25T08:04:11;96765.56;;;5.69;86.97
75013;BME280;63567;49.956;20.130;2024-01-25T08:06:37;96768.00;;;5.70;87.08
75013;BME280;63567;49.956;20.130;2024-01-25T08:09:02;96776.66;;;5.71;87.22
75013;BME280;63567;49.956;20.130;2024-01-25T08:11:28;96771.44;;;5.71;87.34
75013;BME280;63567;49.956;20.130;2024-01-25T08:13:53;96779.44;;;5.69;87.28
75013;BME280;63567;49.956;20.130;2024-01-25T08:16:18;96805.06;;;5.66;87.96
75013;BME280;63567;49.956;20.130;2024-01-25T08:18:47;96786.78;;;5.66;87.99
75013;BME280;63567;49.956;20.130;2024-01-25T08:21:13;96793.16;;;5.71;88.21
75013;BME280;63567;49.956;20.130;2024-01-25T08:23:38;96802.28;;;5.67;88.82
75013;BME280;63567;49.956;20.130;2024-01-25T08:26:04;96778.47;;;5.62;89.21
75013;BME280;63567;49.956;20.130;2024-01-25T08:28:30;96791.03;;;5.59;89.37
75013;BME280;63567;49.956;20.130;2024-01-25T08:30:55;96787.91;;;5.55;89.73
75013;BME280;63567;49.956;20.130;2024-01-25T08:33:20;96775.34;;;5.50;89.98
75013;BME280;63567;49.956;20.130;2024-01-25T08:35:46;96783.50;;;5.47;90.20
75013;BME280;63567;49.956;20.130;2024-01-25T08:38:11;96784.66;;;5.45;90.50
75013;BME280;63567;49.956;20.130;2024-01-25T08:40:36;96775.50;;;5.41;90.77
75013;BME280;63567;49.956;20.130;2024-01-25T08:43:01;96775.66;;;5.39;90.67
75013;BME280;63567;49.956;20.130;2024-01-25T08:45:27;96783.50;;;5.39;90.72
75013;BME280;63567;49.956;20.130;2024-01-25T08:47:52;96776.66;;;5.38;90.80
75013;BME280;63567;49.956;20.130;2024-01-25T08:50:17;96785.16;;;5.40;90.66
75013;BME280;63567;49.956;20.130;2024-01-25T08:52:42;96780.88;;;5.39;90.74
75013;BME280;63567;49.956;20.130;2024-01-25T08:55:08;96774.69;;;5.40;90.91
75013;BME280;63567;49.956;20.130;2024-01-25T08:57:35;96786.75;;;5.41;90.55
75013;BME280;63567;49.956;20.130;2024-01-25T09:00:00;96799.50;;;5.44;90.72
75013;BME280;63567;49.956;20.130;2024-01-25T09:02:26;96790.19;;;5.42;90.72
75013;BME280;63567;49.956;20.130;2024-01-25T09:04:52;96786.91;;;5.40;91.00
75013;BME280;63567;49.956;20.130;2024-01-25T09:07:19;96779.94;;;5.40;91.11
75013;BME280;63567;49.956;20.130;2024-01-25T09:09:44;96781.53;;;5.41;91.41
75013;BME280;63567;49.956;20.130;2024-01-25T09:12:09;96769.47;;;5.40;91.10
75013;BME280;63567;49.956;20.130;2024-01-25T09:14:36;96780.06;;;5.39;91.38
75013;BME280;63567;49.956;20.130;2024-01-25T09:17:02;96767.81;;;5.39;91.52
75013;BME280;63567;49.956;20.130;2024-01-25T09:19:27;96776.16;;;5.43;91.56
75013;BME280;63567;49.956;20.130;2024-01-25T09:21:52;96784.16;;;5.41;91.60
75013;BME280;63567;49.956;20.130;2024-01-25T09:24:17;96784.16;;;5.41;91.90
75013;BME280;63567;49.956;20.130;2024-01-25T09:26:42;96780.56;;;5.42;91.94
75013;BME280;63567;49.956;20.130;2024-01-25T09:29:08;96773.38;;;5.44;91.54
75013;BME280;63567;49.956;20.130;2024-01-25T09:31:33;96774.88;;;5.47;91.90
75013;BME280;63567;49.956;20.130;2024-01-25T09:33:59;96771.91;;;5.50;91.70
75013;BME280;63567;49.956;20.130;2024-01-25T09:36:24;96782.22;;;5.51;92.12
75013;BME280;63567;49.956;20.130;2024-01-25T09:38:49;96780.25;;;5.53;91.96
75013;BME280;63567;49.956;20.130;2024-01-25T09:41:14;96774.03;;;5.54;91.88
75013;BME280;63567;49.956;20.130;2024-01-25T09:43:40;96786.94;;;5.56;91.72
75013;BME280;63567;49.956;20.130;2024-01-25T09:46:06;96781.56;;;5.58;91.59
75013;BME280;63567;49.956;20.130;2024-01-25T09:48:32;96791.03;;;5.59;91.32
75013;BME280;63567;49.956;20.130;2024-01-25T09:50:58;96788.09;;;5.62;91.27
75013;BME280;63567;49.956;20.130;2024-01-25T09:53:24;96792.50;;;5.61;91.63
75013;BME280;63567;49.956;20.130;2024-01-25T09:56:10;96782.03;;;5.61;91.34
75013;BME280;63567;49.956;20.130;2024-01-25T09:58:39;96795.94;;;5.62;91.33
75013;BME280;63567;49.956;20.130;2024-01-25T10:01:09;96796.09;;;5.60;91.41
75013;BME280;63567;49.956;20.130;2024-01-25T10:03:35;96789.88;;;5.61;91.35
75013;BME280;63567;49.956;20.130;2024-01-25T10:06:01;96779.13;;;5.64;91.37
75013;BME280;63567;49.956;20.130;2024-01-25T10:08:26;96781.72;;;5.64;91.43
75013;BME280;63567;49.956;20.130;2024-01-25T10:10:51;96789.38;;;5.66;91.32
75013;BME280;63567;49.956;20.130;2024-01-25T10:13:19;96802.13;;;5.69;91.43
75013;BME280;63567;49.956;20.130;2024-01-25T10:15:44;96802.78;;;5.71;91.36
75013;BME280;63567;49.956;20.130;2024-01-25T10:18:12;96807.69;;;5.74;91.06
75013;BME280;63567;49.956;20.130;2024-01-25T10:20:47;96805.06;;;5.74;90.81
75013;BME280;63567;49.956;20.130;2024-01-25T10:23:12;96807.03;;;5.72;91.02
75013;BME280;63567;49.956;20.130;2024-01-25T10:25:38;96808.50;;;5.74;90.88
75013;BME280;63567;49.956;20.130;2024-01-25T10:28:04;96804.25;;;5.73;90.83
75013;BME280;63567;49.956;20.130;2024-01-25T10:30:34;96820.59;;;5.75;90.80
75013;BME280;63567;49.956;20.130;2024-01-25T10:33:00;96814.56;;;5.75;91.10
75013;BME280;63567;49.956;20.130;2024-01-25T10:35:26;96821.09;;;5.79;90.67
75013;BME280;63567;49.956;20.130;2024-01-25T10:37:53;96805.41;;;5.79;90.03
75013;BME280;63567;49.956;20.130;2024-01-25T10:40:19;96810.78;;;5.78;90.31
75013;BME280;63567;49.956;20.130;2024-01-25T10:42:45;96795.59;;;5.73;90.20
75013;BME280;63567;49.956;20.130;2024-01-25T10:45:10;96805.56;;;5.78;90.06
75013;BME280;63567;49.956;20.130;2024-01-25T10:47:36;96818.78;;;5.76;90.50
75013;BME280;63567;49.956;20.130;2024-01-25T10:50:03;96810.47;;;5.81;89.55
75013;BME280;63567;49.956;20.130;2024-01-25T10:52:29;96809.50;;;5.82;89.25
75013;BME280;63567;49.956;20.130;2024-01-25T10:54:55;96801.97;;;5.79;89.25
75013;BME280;63567;49.956;20.130;2024-01-25T10:57:21;96805.72;;;5.76;89.52
75013;BME280;63567;49.956;20.130;2024-01-25T10:59:47;96803.91;;;5.76;89.00
75013;BME280;63567;49.956;20.130;2024-01-25T11:02:12;96807.38;;;5.77;88.84
75013;BME280;63567;49.956;20.130;2024-01-25T11:04:37;96797.88;;;5.76;88.59
75013;BME280;63567;49.956;20.130;2024-01-25T11:07:09;96809.00;;;5.78;88.40
75013;BME280;63567;49.956;20.130;2024-01-25T11:09:35;96809.81;;;5.79;88.07
75013;BME280;63567;49.956;20.130;2024-01-25T11:12:11;96807.53;;;5.75;88.27
75013;BME280;63567;49.956;20.130;2024-01-25T11:14:37;96822.22;;;5.76;88.27
75013;BME280;63567;49.956;20.130;2024-01-25T11:17:15;96813.06;;;5.81;88.06
75013;BME280;63567;49.956;20.130;2024-01-25T11:19:40;96820.09;;;5.80;87.75
75013;BME280;63567;49.956;20.130;2024-01-25T11:22:05;96818.28;;;5.81;87.79
75013;BME280;63567;49.956;20.130;2024-01-25T11:24:38;96822.22;;;5.76;87.78
75013;BME280;63567;49.956;20.130;2024-01-25T11:27:09;96829.91;;;5.78;88.18
75013;BME280;63567;49.956;20.130;2024-01-25T11:29:35;96825.31;;;5.80;87.82
75013;BME280;63567;49.956;20.130;2024-01-25T11:32:00;96828.09;;;5.79;87.93
75013;BME280;63567;49.956;20.130;2024-01-25T11:34:28;96828.09;;;5.79;88.42
75013;BME280;63567;49.956;20.130;2024-01-25T11:36:53;96821.91;;;5.80;88.20
75013;BME280;63567;49.956;20.130;2024-01-25T11:39:18;96824.19;;;5.83;88.09
75013;BME280;63567;49.956;20.130;2024-01-25T11:41:44;96813.72;;;5.83;87.61
75013;BME280;63567;49.956;20.130;2024-01-25T11:44:11;96815.03;;;5.79;87.76
75013;BME280;63567;49.956;20.130;2024-01-25T11:46:36;96819.75;;;5.83;86.67
75013;BME280;63567;49.956;20.130;2024-01-25T11:49:01;96837.41;;;5.81;86.73
75013;BME280;63567;49.956;20.130;2024-01-25T11:51:27;96832.66;;;5.76;86.38
75013;BME280;63567;49.956;20.130;2024-01-25T11:53:52;96847.22;;;5.79;86.14
75013;BME280;63567;49.956;20.130;2024-01-25T11:56:21;96844.44;;;5.81;86.34
75013;BME280;63567;49.956;20.130;2024-01-25T11:58:48;96837.41;;;5.81;85.98
75013;BME280;63567;49.956;20.130;2024-01-25T12:01:14;96837.91;;;5.85;86.33
75013;BME280;63567;49.956;20.130;2024-01-25T12:03:40;96846.56;;;5.85;85.83
75013;BME280;63567;49.956;20.130;2024-01-25T12:06:05;96858.66;;;5.86;85.56
75013;BME280;63567;49.956;20.130;2024-01-25T12:08:33;96867.16;;;5.88;85.53
75013;BME280;63567;49.956;20.130;2024-01-25T12:11:08;96861.94;;;5.88;85.45
75013;BME280;63567;49.956;20.130;2024-01-25T12:13:43;96853.47;;;5.94;85.33
75013;BME280;63567;49.956;20.130;2024-01-25T12:16:09;96866.66;;;5.93;84.89
75013;BME280;63567;49.956;20.130;2024-01-25T12:18:36;96868.78;;;5.89;85.12
75013;BME280;63567;49.956;20.130;2024-01-25T12:21:03;96860.63;;;5.92;84.89
75013;BME280;63567;49.956;20.130;2024-01-25T12:23:33;96873.69;;;5.92;84.84
75013;BME280;63567;49.956;20.130;2024-01-25T12:25:59;96874.66;;;5.91;84.67
75013;BME280;63567;49.956;20.130;2024-01-25T12:28:27;96870.09;;;5.93;85.05
75013;BME280;63567;49.956;20.130;2024-01-25T12:30:52;96867.47;;;5.93;85.05
75013;BME280;63567;49.956;20.130;2024-01-25T12:33:18;96880.56;;;5.93;84.99
75013;BME280;63567;49.956;20.130;2024-01-25T12:35:43;96884.97;;;5.93;85.19
75013;BME280;63567;49.956;20.130;2024-01-25T12:38:08;96872.72;;;5.93;85.21
75013;BME280;63567;49.956;20.130;2024-01-25T12:40:34;96896.13;;;5.95;85.34
75013;BME280;63567;49.956;20.130;2024-01-25T12:42:59;96887.59;;;5.93;85.34
75013;BME280;63567;49.956;20.130;2024-01-25T12:45:24;96890.88;;;5.95;84.99
75013;BME280;63567;49.956;20.130;2024-01-25T12:47:49;96861.31;;;5.94;84.75
75013;BME280;63567;49.956;20.130;2024-01-25T12:50:15;96880.88;;;5.90;85.18
75013;BME280;63567;49.956;20.130;2024-01-25T12:52:40;96879.25;;;5.89;85.56